Forest fire From: 19-07-2018 17:00 Until: 20-07-2018 16:00 warning for: Forest fire Level: Yellow info button
suomi:
Metsäpalovaroitus on voimassa.

svenska:
Varning för skogsbrand gäller.

english:
A forest fire warning is in force. 

Extreme high temperature From: 19-07-2018 17:00 Until: 23:00 warning for: Extreme high temperature Level: Yellow info button
suomi:
Hellevaroitus: Lähivuorokauden aikana on odotettavissa tukalaa hellettä.

svenska:
Varning för värmebölja: Under det närmaste dygnet är den svåra hettan att vänta.

english:
Heat wave warning: Warm weather is expected during the coming 24 hours. 


Thunder radar more information blitzortung!


Löydät sääaseman tiedot myös:

European Weather Network

Finland Weather Exchange

Weather Underground

AWEKAS



Weather Underground säähistoriasivu

Päivittäin yhteenveto Elokuu 25, 2017 Yksiköt:  Englantilaiset    Metriset   Molemmat
« Edellinen Päivä
Seuraava Päivä »
Päivittäin Viikoittain Kuukausittain Vuosittain Mukautettu
  Korkea: Matala: Keskiarvo:
Lämpötila: TemperatureC °F 3.5 °F 9.3 °F
Kastepiste: DewpointC °F 2.9 °F 6.9 °F
Kosteus: Humidity % 68 % 84 %
Tuulen nopeus: WindSpeedKMH mph 0.0 mph 1.7 mph
Tuulenpuuska: WindSpeedGustKMH mph - -
Tuuli:- - WSW
Ilmanpaine: PressurehPa in 1002.6 in -
Sade: 0.0 in    
Historical Graphs
 
 
Taulukkotiedot Elokuu 25, 2017
Aika Lämpötila Kastepiste Ilmanpaine Tuuli Tuulen nopeus Tuulenpuuska Kosteus Sademäärä (tunneittain)
TemperatureC °F DewpointC °F PressurehPa in Calm     Humidity % HourlyPrecipMM in
00:00 3.5 °F 2.9 °F 1003.9 in Calm     96 % 0.0 in
00:15 3.6 °F 3.0 °F 1003.9 in Calm     96 % 0.0 in
00:30 3.9 °F 3.3 °F 1003.9 in Calm     96 % 0.0 in
00:45 4.3 °F 3.8 °F 1003.9 in Calm     97 % 0.0 in
01:00 5.2 °F 4.7 °F 1003.9 in Calm   3.2 mph 97 % 0.0 in
01:15 6.2 °F 5.7 °F 1003.6 in SW 1.6 mph 6.4 mph 97 % 0.0 in
01:30 6.9 °F 6.5 °F 1003.6 in SSW 1.6 mph 6.4 mph 97 % 0.0 in
01:45 7.6 °F 7.2 °F 1003.6 in Calm   8.0 mph 97 % 0.0 in
02:00 8.6 °F 7.5 °F 1003.6 in SW 3.2 mph 14.5 mph 93 % 0.0 in
02:15 9.3 °F 7.6 °F 1003.6 in SW 1.6 mph 11.3 mph 89 % 0.0 in
02:30 10.1 °F 7.6 °F 1003.6 in WNW 4.8 mph 14.5 mph 85 % 0.0 in
02:45 10.5 °F 7.6 °F 1003.6 in WNW 6.4 mph 22.5 mph 82 % 0.0 in
03:00 10.8 °F 7.5 °F 1003.6 in NW 3.2 mph 9.7 mph 80 % 0.0 in
03:15 10.8 °F 7.0 °F 1003.6 in WNW 3.2 mph 17.7 mph 77 % 0.0 in
03:30 11.1 °F 7.6 °F 1003.3 in WSW 1.6 mph 8.0 mph 79 % 0.0 in
03:45 11.7 °F 7.2 °F 1003.6 in WNW 4.8 mph 14.5 mph 74 % 0.0 in
04:00 12.2 °F 7.1 °F 1003.3 in West 4.8 mph 17.7 mph 71 % 0.0 in
04:15 12.8 °F 7.5 °F 1003.6 in WNW 4.8 mph 16.1 mph 70 % 0.0 in
04:30 12.9 °F 7.1 °F 1003.6 in West 6.4 mph 16.1 mph 68 % 0.0 in
04:45 11.7 °F 7.0 °F 1003.9 in West 3.2 mph 12.9 mph 73 % 0.0 in
05:00 11.9 °F 7.2 °F 1003.6 in West 4.8 mph 16.1 mph 73 % 0.0 in
05:15 12.3 °F 7.2 °F 1003.9 in WNW 3.2 mph 14.5 mph 71 % 0.0 in
05:30 11.8 °F 6.9 °F 1003.9 in WNW 4.8 mph 16.1 mph 72 % 0.0 in
05:45 11.8 °F 6.7 °F 1003.9 in West 3.2 mph 14.5 mph 71 % 0.0 in
06:00 11.5 °F 7.0 °F 1003.9 in NW 3.2 mph 14.5 mph 74 % 0.0 in
06:15 11.9 °F 7.0 °F 1003.9 in West 4.8 mph 11.3 mph 72 % 0.0 in
06:30 11.8 °F 7.3 °F 1003.9 in WNW 3.2 mph 11.3 mph 74 % 0.0 in
06:45 11.8 °F 7.1 °F 1003.9 in West 3.2 mph 12.9 mph 73 % 0.0 in
07:00 12.2 °F 6.9 °F 1004.3 in West 4.8 mph 12.9 mph 70 % 0.0 in
07:15 12.0 °F 6.5 °F 1004.3 in West 4.8 mph 9.7 mph 69 % 0.0 in
07:30 11.8 °F 6.9 °F 1004.3 in WNW 1.6 mph 8.0 mph 72 % 0.0 in
07:45 11.7 °F 6.8 °F 1004.3 in WSW 3.2 mph 11.3 mph 72 % 0.0 in
08:00 11.8 °F 6.7 °F 1004.3 in WNW 3.2 mph 14.5 mph 71 % 0.0 in
08:15 11.7 °F 7.0 °F 1004.3 in WNW 3.2 mph 12.9 mph 73 % 0.0 in
08:30 11.6 °F 6.7 °F 1004.3 in NW 3.2 mph 9.7 mph 72 % 0.0 in
08:45 11.3 °F 6.7 °F 1004.6 in WNW 3.2 mph 20.9 mph 73 % 0.0 in
09:00 11.3 °F 6.9 °F 1004.6 in WNW 1.6 mph 6.4 mph 74 % 0.0 in
09:15 11.2 °F 7.0 °F 1004.6 in WNW 3.2 mph 8.0 mph 75 % 0.0 in
09:30 11.6 °F 6.9 °F 1004.3 in WSW 3.2 mph 9.7 mph 73 % 0.0 in
09:45 11.7 °F 7.2 °F 1004.3 in SSW 1.6 mph 12.9 mph 74 % 0.0 in
10:00 11.8 °F 7.1 °F 1004.3 in SW 3.2 mph 8.0 mph 73 % 0.0 in
10:15 11.7 °F 7.2 °F 1004.3 in Calm   4.8 mph 74 % 0.0 in
10:30 12.5 °F 7.8 °F 1004.3 in South 3.2 mph 14.5 mph 73 % 0.0 in
10:45 12.7 °F 7.3 °F 1004.3 in SW 3.2 mph 8.0 mph 70 % 0.0 in
11:00 12.2 °F 7.3 °F 1003.9 in SSE 1.6 mph 6.4 mph 72 % 0.0 in
11:15 12.4 °F 7.7 °F 1003.9 in SSW 1.6 mph 6.4 mph 73 % 0.0 in
11:30 12.3 °F 8.0 °F 1003.9 in Calm     75 % 0.0 in
11:45 12.4 °F 7.7 °F 1003.9 in West 1.6 mph 6.4 mph 73 % 0.0 in
12:00 12.3 °F 7.6 °F 1003.9 in WSW 1.6 mph 8.0 mph 73 % 0.0 in
12:15 12.2 °F 7.7 °F 1003.9 in WSW 1.6 mph 11.3 mph 74 % 0.0 in
12:30 11.8 °F 7.9 °F 1003.9 in SW 1.6 mph 6.4 mph 77 % 0.0 in
12:45 11.6 °F 8.0 °F 1003.9 in SSW 1.6 mph 6.4 mph 79 % 0.0 in
13:00 11.3 °F 8.3 °F 1003.6 in Calm   4.8 mph 82 % 0.0 in
13:15 11.1 °F 8.3 °F 1003.6 in Calm   1.6 mph 83 % 0.0 in
13:30 10.5 °F 8.8 °F 1003.9 in Calm   1.6 mph 89 % 1.3 in
13:45 9.9 °F 8.5 °F 1003.9 in SSW 1.6 mph 9.7 mph 91 % 2.3 in
14:00 9.1 °F 7.7 °F 1003.6 in SSW 4.8 mph 14.5 mph 91 % 4.3 in
14:15 8.9 °F 7.8 °F 1003.9 in SSW 3.2 mph 9.7 mph 93 % 4.3 in
14:30 8.8 °F 7.7 °F 1003.6 in SW 1.6 mph 14.5 mph 93 % 3.3 in
14:45 8.6 °F 7.6 °F 1003.6 in Calm   8.0 mph 94 % 2.0 in
15:00 8.3 °F 7.4 °F 1003.6 in Calm   1.6 mph 94 % 0.0 in
15:30 7.9 °F 7.1 °F 1003.3 in SSW 1.6 mph 8.0 mph 95 % 0.3 in
15:45 7.8 °F 7.0 °F 1003.3 in SSW 1.6 mph 6.4 mph 95 % 0.3 in
16:00 7.8 °F 7.0 °F 1002.9 in SSW 3.2 mph 8.0 mph 95 % 0.3 in
16:15 7.7 °F 7.0 °F 1002.9 in SSW 1.6 mph 6.4 mph 95 % 0.3 in
16:30 7.6 °F 6.8 °F 1002.9 in SSW 1.6 mph 9.7 mph 95 % 0.0 in
16:45 7.3 °F 6.6 °F 1002.9 in Calm   4.8 mph 95 % 0.0 in
17:00 7.3 °F 6.5 °F 1002.9 in SSW 1.6 mph 6.4 mph 95 % 0.0 in
17:15 7.2 °F 6.6 °F 1002.9 in Calm   6.4 mph 96 % 0.0 in
17:30 7.2 °F 6.6 °F 1002.6 in Calm   4.8 mph 96 % 0.0 in
17:45 7.2 °F 6.6 °F 1002.6 in Calm   4.8 mph 96 % 0.0 in
18:00 7.2 °F 6.6 °F 1002.6 in Calm   4.8 mph 96 % 0.0 in
18:15 7.2 °F 6.6 °F 1002.6 in Calm   3.2 mph 96 % 0.0 in
18:30 7.1 °F 6.5 °F 1002.6 in Calm   3.2 mph 96 % 0.0 in
18:45 7.1 °F 6.5 °F 1002.6 in Calm     96 % 0.0 in
19:00 7.1 °F 6.5 °F 1002.6 in Calm     96 % 0.0 in
19:15 7.2 °F 6.6 °F 1002.6 in Calm     96 % 0.0 in
19:30 7.2 °F 6.6 °F 1002.6 in Calm     96 % 0.0 in
19:45 7.1 °F 6.5 °F 1002.6 in Calm     96 % 0.0 in
20:00 7.0 °F 6.6 °F 1002.6 in Calm   3.2 mph 97 % 0.0 in
20:15 7.2 °F 6.8 °F 1002.6 in Calm     97 % 0.0 in
20:30 7.4 °F 6.9 °F 1002.6 in Calm     97 % 0.0 in
20:45 7.4 °F 7.0 °F 1002.6 in Calm     97 % 0.0 in
21:00 7.4 °F 6.9 °F 1002.6 in Calm     97 % 0.0 in
21:15 7.3 °F 6.8 °F 1002.6 in Calm     97 % 0.0 in
21:30 7.2 °F 6.7 °F 1002.6 in Calm     97 % 0.0 in
21:45 7.1 °F 6.7 °F 1002.6 in Calm   1.6 mph 97 % 0.0 in
22:00 7.3 °F 6.8 °F 1002.6 in Calm     97 % 0.0 in
22:15 7.4 °F 6.9 °F 1002.6 in Calm     97 % 0.0 in
22:30 7.4 °F 7.0 °F 1002.6 in Calm   3.2 mph 97 % 0.0 in
22:45 7.6 °F 7.1 °F 1002.6 in Calm   3.2 mph 97 % 0.0 in
23:00 7.6 °F 7.2 °F 1002.6 in Calm   4.8 mph 97 % 0.0 in
23:30 7.6 °F 7.1 °F 1002.6 in Calm   8.0 mph 97 % 0.0 in
Esan sääasema
Terveisin Weather Underground - 2.75 mb

Alkuperäinen skripti  Jim McMurry - jmcmurry@mwt.net Sovitettu myös templatelle  Wim van der Kuil - Leuven-Template.eu

Laitteet joita käytämme:

Sääasema
Davis VP2

Sääasemaohjelma
Cumulus

Sääaseman tietokone
Asus EeePC

Palveluntarjoaja
Suncomet

Davis VP2

Cumulus

Asus EeePC

Suncomet